createdAt,value
2022-12-13T00:00:19.319Z,-0.80
2022-12-13T00:01:17.439Z,-1.11
2022-12-13T00:02:14.097Z,-0.58
2022-12-13T00:03:10.800Z,-0.73
2022-12-13T00:04:08.530Z,-0.79
2022-12-13T00:05:05.591Z,-0.75
2022-12-13T00:06:05.476Z,-0.67
2022-12-13T00:07:02.254Z,-0.85
2022-12-13T00:08:00.062Z,-0.60
2022-12-13T00:08:57.329Z,-0.58
2022-12-13T00:09:53.955Z,-0.85
2022-12-13T00:11:00.255Z,-1.03
2022-12-13T00:11:56.985Z,-0.80
2022-12-13T00:12:53.620Z,-0.95
2022-12-13T00:13:50.277Z,-0.76
2022-12-13T00:14:46.862Z,-0.61
2022-12-13T00:15:43.502Z,-0.59
2022-12-13T00:16:40.736Z,-0.78
2022-12-13T00:17:37.709Z,-0.94
2022-12-13T00:18:34.983Z,-0.80
2022-12-13T00:19:31.565Z,-0.80
2022-12-13T00:20:28.171Z,-0.71
2022-12-13T00:21:30.288Z,-0.77
2022-12-13T00:22:26.940Z,-0.66
2022-12-13T00:23:24.344Z,-0.68
2022-12-13T00:24:21.058Z,-0.93
2022-12-13T00:25:19.902Z,-0.74
2022-12-13T00:26:19.578Z,-0.70
2022-12-13T00:27:16.127Z,-0.72
2022-12-13T00:28:12.811Z,-0.71
2022-12-13T00:29:11.261Z,-0.84
2022-12-13T00:30:08.413Z,-0.90
2022-12-13T00:31:43.156Z,-0.69
2022-12-13T00:32:21.799Z,-0.56
2022-12-13T00:33:18.497Z,-0.63
2022-12-13T00:34:15.154Z,-0.54
2022-12-13T00:35:11.836Z,-0.67
2022-12-13T00:36:08.900Z,-0.69
2022-12-13T00:37:05.490Z,-0.94
2022-12-13T00:38:02.123Z,-0.99
2022-12-13T00:39:01.744Z,-0.87
2022-12-13T00:39:58.392Z,-0.89
2022-12-13T00:40:54.955Z,-0.97
2022-12-13T00:41:51.765Z,-0.88
2022-12-13T00:42:49.146Z,-0.94
2022-12-13T00:43:46.329Z,-0.94
2022-12-13T00:44:42.948Z,-1.03
2022-12-13T00:45:39.985Z,-1.21
2022-12-13T00:46:36.639Z,-0.93
2022-12-13T00:47:33.341Z,-1.34
2022-12-13T00:48:30.200Z,-1.18
2022-12-13T00:49:26.798Z,-1.16
2022-12-13T00:50:23.424Z,-1.07
2022-12-13T00:51:21.027Z,-1.01
2022-12-13T00:52:17.595Z,-1.05
2022-12-13T00:53:14.183Z,-0.98
2022-12-13T00:54:11.323Z,-0.80
2022-12-13T00:55:08.391Z,-0.76
2022-12-13T00:56:09.964Z,-0.80
2022-12-13T00:57:06.576Z,-0.61
2022-12-13T00:58:03.229Z,-1.09
2022-12-13T00:59:00.326Z,-0.89
2022-12-13T00:59:57.018Z,-0.94
2022-12-13T01:00:53.591Z,-0.88
2022-12-13T01:01:50.257Z,-0.94
2022-12-13T01:02:47.162Z,-1.06
2022-12-13T01:03:44.045Z,-0.93
2022-12-13T01:04:40.648Z,-0.85
2022-12-13T01:06:13.289Z,-1.09
2022-12-13T01:06:55.160Z,-1.12
2022-12-13T01:07:51.904Z,-1.20
2022-12-13T01:08:49.420Z,-1.26
2022-12-13T01:09:46.020Z,-1.26
2022-12-13T01:10:47.098Z,-1.24
2022-12-13T01:11:44.832Z,-1.23
2022-12-13T01:12:41.480Z,-1.09
2022-12-13T01:13:39.243Z,-1.02
2022-12-13T01:14:37.225Z,-1.02
2022-12-13T01:15:33.853Z,-0.99
2022-12-13T01:16:30.590Z,-1.08
2022-12-13T01:17:27.571Z,-1.44
2022-12-13T01:18:24.314Z,-1.03
2022-12-13T01:19:22.415Z,-0.98
2022-12-13T01:20:19.054Z,-0.98
2022-12-13T01:21:18.286Z,-0.94
2022-12-13T01:22:15.019Z,-0.96
2022-12-13T01:23:11.939Z,-0.90
2022-12-13T01:24:08.659Z,-0.79
2022-12-13T01:25:05.529Z,-0.83
2022-12-13T01:26:04.533Z,-0.94
2022-12-13T01:27:01.216Z,-0.96
2022-12-13T01:27:57.775Z,-0.76
2022-12-13T01:28:54.372Z,-0.93
2022-12-13T01:29:51.021Z,-0.85
2022-12-13T01:30:56.698Z,-0.88
2022-12-13T01:31:54.294Z,-0.89
2022-12-13T01:32:51.027Z,-0.91
2022-12-13T01:33:48.601Z,-0.89
2022-12-13T01:34:45.154Z,-0.94
2022-12-13T01:35:41.837Z,-0.86
2022-12-13T01:36:43.384Z,-0.78
2022-12-13T01:37:39.976Z,-0.89
2022-12-13T01:38:37.869Z,-0.91
2022-12-13T01:39:38.228Z,-0.91
2022-12-13T01:40:38.786Z,-0.87
2022-12-13T01:41:36.031Z,-0.87
2022-12-13T01:42:32.682Z,-1.21
2022-12-13T01:43:49.272Z,-0.73
2022-12-13T01:45:04.067Z,-0.93
2022-12-13T01:46:00.768Z,-0.99
2022-12-13T01:46:57.487Z,-1.04
2022-12-13T01:48:02.476Z,-0.94
2022-12-13T01:49:04.842Z,-1.40
2022-12-13T01:50:03.091Z,-1.14
2022-12-13T01:51:03.877Z,-1.18
2022-12-13T01:52:05.287Z,-1.20
2022-12-13T01:53:05.364Z,-1.02
2022-12-13T01:54:05.140Z,-1.11
2022-12-13T01:55:05.118Z,-1.15
2022-12-13T01:56:06.965Z,-1.14
2022-12-13T01:57:06.924Z,-1.18
2022-12-13T01:58:05.899Z,-1.15
2022-12-13T01:59:02.984Z,-1.41
2022-12-13T01:59:59.955Z,-1.34
2022-12-13T02:00:59.184Z,-1.45
2022-12-13T02:02:00.939Z,-1.08
2022-12-13T02:02:59.927Z,-1.11
2022-12-13T02:03:56.577Z,-1.06
2022-12-13T02:04:58.479Z,-1.32
2022-12-13T02:06:19.678Z,-1.37
2022-12-13T02:07:23.185Z,-1.48
2022-12-13T02:08:21.349Z,-1.07
2022-12-13T02:09:18.820Z,-1.19
2022-12-13T02:10:15.540Z,-1.48
2022-12-13T02:11:13.020Z,-1.16
2022-12-13T02:12:11.379Z,-1.26
2022-12-13T02:13:08.003Z,-1.62
2022-12-13T02:14:05.636Z,-1.39
2022-12-13T02:15:07.985Z,-1.58
2022-12-13T02:16:28.226Z,-1.68
2022-12-13T02:17:44.722Z,-2.01
2022-12-13T02:19:10.328Z,-1.69
2022-12-13T02:20:25.643Z,-1.98
2022-12-13T02:21:48.757Z,-2.22
2022-12-13T02:23:11.689Z,-2.21
2022-12-13T02:24:32.699Z,-2.16
2022-12-13T02:25:35.082Z,-2.17
2022-12-13T02:26:34.316Z,-2.17
2022-12-13T02:28:30.851Z,-1.98
2022-12-13T02:30:00.904Z,-2.15
2022-12-13T02:31:07.962Z,-2.36
2022-12-13T02:32:28.869Z,-2.21
2022-12-13T02:33:50.439Z,-2.03
2022-12-13T02:34:50.088Z,-2.16
2022-12-13T02:36:12.723Z,-2.22
2022-12-13T02:37:25.590Z,-2.27
2022-12-13T02:38:55.498Z,-2.55
2022-12-13T02:40:05.370Z,-2.34
2022-12-13T02:41:24.256Z,-2.34
2022-12-13T02:42:49.508Z,-2.08
2022-12-13T02:44:22.363Z,-2.24
2022-12-13T02:45:36.817Z,-2.46
2022-12-13T02:46:39.785Z,-2.92
2022-12-13T02:47:41.584Z,-2.55
2022-12-13T02:48:40.857Z,-2.65
2022-12-13T02:49:42.429Z,-2.53
2022-12-13T02:50:40.497Z,-2.30
2022-12-13T02:51:39.307Z,-2.33
2022-12-13T02:52:36.772Z,-2.36
2022-12-13T02:53:34.859Z,-2.37
2022-12-13T02:54:31.561Z,-2.28
2022-12-13T02:55:28.959Z,-2.37
2022-12-13T02:56:25.531Z,-2.54
2022-12-13T02:57:30.008Z,-2.58
2022-12-13T02:58:31.116Z,-2.71
2022-12-13T02:59:35.805Z,-3.10
2022-12-13T03:00:59.228Z,-2.99
2022-12-13T03:02:14.457Z,-2.94
2022-12-13T03:03:30.473Z,-2.83
2022-12-13T03:04:36.419Z,-2.86
2022-12-13T03:05:51.460Z,-2.99
2022-12-13T03:07:00.444Z,-3.09
2022-12-13T03:08:38.830Z,-3.19
2022-12-13T03:09:50.472Z,-2.77
2022-12-13T03:10:55.081Z,-2.94
2022-12-13T03:12:32.487Z,-2.87
2022-12-13T03:13:42.978Z,-2.94
2022-12-13T03:14:46.827Z,-2.88
2022-12-13T03:16:14.656Z,-2.86
2022-12-13T03:17:21.650Z,-2.94
2022-12-13T03:18:22.185Z,-2.93
2022-12-13T03:19:19.491Z,-3.09
2022-12-13T03:20:24.548Z,-3.14
2022-12-13T03:21:21.219Z,-3.17
2022-12-13T03:22:17.893Z,-3.47
2022-12-13T03:23:16.315Z,-3.27
2022-12-13T03:24:13.659Z,-3.52
2022-12-13T03:25:10.246Z,-3.53
2022-12-13T03:26:12.910Z,-3.47
2022-12-13T03:27:09.485Z,-3.78
2022-12-13T03:28:06.087Z,-3.58
2022-12-13T03:29:02.789Z,-3.44
2022-12-13T03:30:00.218Z,-3.57
2022-12-13T03:30:56.929Z,-3.36
2022-12-13T03:31:54.353Z,-3.39
2022-12-13T03:32:50.943Z,-3.38
2022-12-13T03:33:48.232Z,-3.62
2022-12-13T03:34:47.588Z,-3.21
2022-12-13T03:35:46.594Z,-3.11
2022-12-13T03:36:43.337Z,-3.04
2022-12-13T03:37:39.953Z,-3.17
2022-12-13T03:38:38.191Z,-3.64
2022-12-13T03:39:35.372Z,-3.26
2022-12-13T03:40:34.280Z,-3.42
2022-12-13T03:41:34.053Z,-3.25
2022-12-13T03:42:30.819Z,-3.39
2022-12-13T03:43:28.770Z,-3.48
2022-12-13T03:44:25.462Z,-3.61
2022-12-13T03:45:28.301Z,-3.69
2022-12-13T03:46:25.002Z,-3.71
2022-12-13T03:47:21.697Z,-3.73
2022-12-13T03:48:22.203Z,-3.96
2022-12-13T03:49:19.887Z,-3.81
2022-12-13T03:50:25.798Z,-3.68
2022-12-13T03:51:24.017Z,-3.69
2022-12-13T03:52:20.680Z,-3.66
2022-12-13T03:53:22.869Z,-4.02
2022-12-13T03:54:29.547Z,-3.71
2022-12-13T03:55:26.846Z,-3.84
2022-12-13T03:56:23.553Z,-3.62
2022-12-13T03:57:20.187Z,-3.36
2022-12-13T03:58:16.871Z,-3.15
2022-12-13T03:59:13.486Z,-3.11
2022-12-13T04:00:10.684Z,-3.10
2022-12-13T04:01:10.216Z,-3.17
2022-12-13T04:02:06.908Z,-3.07
2022-12-13T04:03:03.690Z,-3.10
2022-12-13T04:04:00.430Z,-3.32
2022-12-13T04:04:57.069Z,-3.30
2022-12-13T04:05:57.379Z,-3.39
2022-12-13T04:06:53.933Z,-3.34
2022-12-13T04:07:50.531Z,-3.49
2022-12-13T04:08:47.239Z,-3.45
2022-12-13T04:09:47.666Z,-3.44
2022-12-13T04:10:44.246Z,-3.45
2022-12-13T04:11:59.751Z,-3.39
2022-12-13T04:13:15.055Z,-3.47
2022-12-13T04:14:12.331Z,-3.63
2022-12-13T04:15:19.083Z,-3.15
2022-12-13T04:16:15.803Z,-3.57
2022-12-13T04:17:12.371Z,-3.64
2022-12-13T04:18:09.034Z,-3.83
2022-12-13T04:19:05.704Z,-3.11
2022-12-13T04:20:02.339Z,-2.98
2022-12-13T04:20:58.956Z,-3.18
2022-12-13T04:21:55.549Z,-3.49
2022-12-13T04:22:52.154Z,-3.58
2022-12-13T04:23:48.805Z,-3.55
2022-12-13T04:24:45.391Z,-3.54
2022-12-13T04:25:42.941Z,-3.67
2022-12-13T04:26:40.758Z,-3.47
2022-12-13T04:27:38.097Z,-3.66
2022-12-13T04:28:34.727Z,-3.79
2022-12-13T04:29:34.907Z,-3.80
2022-12-13T04:30:32.129Z,-3.88
2022-12-13T04:31:28.796Z,-3.66
2022-12-13T04:32:26.871Z,-3.80
2022-12-13T04:33:24.852Z,-3.87
2022-12-13T04:34:21.517Z,-3.97
2022-12-13T04:35:18.412Z,-4.12
2022-12-13T04:36:32.165Z,-4.06
2022-12-13T04:37:30.362Z,-4.09
2022-12-13T04:38:27.583Z,-4.12
2022-12-13T04:39:24.150Z,-4.36
2022-12-13T04:40:21.921Z,-4.14
2022-12-13T04:41:19.480Z,-4.26
2022-12-13T04:42:16.443Z,-3.99
2022-12-13T04:43:13.127Z,-4.00
2022-12-13T04:44:27.892Z,-3.75
2022-12-13T04:45:26.067Z,-4.11
2022-12-13T04:46:22.820Z,-3.75
2022-12-13T04:47:19.441Z,-3.68
2022-12-13T04:48:31.314Z,-3.90
2022-12-13T04:49:30.152Z,-4.01
2022-12-13T04:50:26.938Z,-3.90
2022-12-13T04:51:23.846Z,-4.22
2022-12-13T04:52:22.329Z,-4.29
2022-12-13T04:53:19.435Z,-4.28
2022-12-13T04:54:24.600Z,-4.22
2022-12-13T04:55:21.295Z,-4.11
2022-12-13T04:56:18.161Z,-3.90
2022-12-13T04:57:14.892Z,-4.01
2022-12-13T04:58:11.777Z,-4.01
2022-12-13T04:59:09.125Z,-4.53
2022-12-13T05:00:07.102Z,-4.31
2022-12-13T05:01:08.181Z,-4.55
2022-12-13T05:02:06.311Z,-4.53
2022-12-13T05:03:03.475Z,-4.44
2022-12-13T05:04:03.329Z,-4.19
2022-12-13T05:05:00.437Z,-4.08
2022-12-13T05:05:57.025Z,-4.08
2022-12-13T05:06:53.608Z,-4.25
2022-12-13T05:07:50.254Z,-4.34
2022-12-13T05:08:46.888Z,-4.37
2022-12-13T05:09:43.475Z,-4.49
2022-12-13T05:10:40.322Z,-4.52
2022-12-13T05:11:36.926Z,-4.47
2022-12-13T05:12:42.178Z,-4.43
2022-12-13T05:13:39.330Z,-4.38
2022-12-13T05:14:35.915Z,-4.59
2022-12-13T05:15:33.655Z,-4.46
2022-12-13T05:16:30.361Z,-4.46
2022-12-13T05:17:27.013Z,-4.71
2022-12-13T05:18:23.790Z,-4.47
2022-12-13T05:19:20.447Z,-4.44
2022-12-13T05:20:17.073Z,-4.36
2022-12-13T05:21:13.684Z,-4.39
2022-12-13T05:22:19.845Z,-4.56
2022-12-13T05:23:23.114Z,-4.37
2022-12-13T05:24:19.800Z,-4.54
2022-12-13T05:25:16.707Z,-4.44
2022-12-13T05:26:13.455Z,-4.67
2022-12-13T05:27:24.881Z,-4.65
2022-12-13T05:28:27.811Z,-4.54
2022-12-13T05:29:25.449Z,-4.54
2022-12-13T05:30:22.013Z,-4.37
2022-12-13T05:31:23.288Z,-4.30
2022-12-13T05:32:20.719Z,-4.40
2022-12-13T05:33:17.360Z,-4.60
2022-12-13T05:34:14.080Z,-4.59
2022-12-13T05:35:10.901Z,-4.86
2022-12-13T05:36:07.920Z,-4.84
2022-12-13T05:37:04.582Z,-4.71
2022-12-13T05:38:01.412Z,-4.58
2022-12-13T05:38:58.000Z,-4.69
2022-12-13T05:39:54.637Z,-4.75
2022-12-13T05:40:51.229Z,-4.79
2022-12-13T05:41:48.124Z,-4.94
2022-12-13T05:42:44.705Z,-4.72
2022-12-13T05:43:43.021Z,-4.78
2022-12-13T05:44:40.225Z,-4.87
2022-12-13T05:45:37.204Z,-4.73
2022-12-13T05:46:39.885Z,-5.21
2022-12-13T05:47:38.169Z,-4.84
2022-12-13T05:48:34.802Z,-4.64
2022-12-13T05:49:32.255Z,-4.68
2022-12-13T05:50:29.149Z,-4.74
2022-12-13T05:51:25.878Z,-4.77
2022-12-13T05:52:31.335Z,-5.29
2022-12-13T05:53:30.645Z,-4.75
2022-12-13T05:54:27.986Z,-4.98
2022-12-13T05:55:24.624Z,-4.83
2022-12-13T05:56:22.614Z,-4.85
2022-12-13T05:57:19.972Z,-4.78
2022-12-13T05:58:16.768Z,-4.86
2022-12-13T05:59:20.021Z,-4.81
2022-12-13T06:00:30.006Z,-5.02
2022-12-13T06:01:27.392Z,-4.85
2022-12-13T06:02:24.368Z,-4.87
2022-12-13T06:03:21.373Z,-4.86
2022-12-13T06:04:22.540Z,-4.89
2022-12-13T06:05:20.041Z,-4.86
2022-12-13T06:06:18.243Z,-4.81
2022-12-13T06:07:14.902Z,-4.77
2022-12-13T06:08:24.268Z,-4.76
2022-12-13T06:09:22.113Z,-4.79
2022-12-13T06:10:21.798Z,-4.82
2022-12-13T06:11:32.157Z,-4.80
2022-12-13T06:12:31.693Z,-4.85
2022-12-13T06:13:32.014Z,-4.84
2022-12-13T06:14:29.285Z,-4.92
2022-12-13T06:15:26.230Z,-5.10
2022-12-13T06:16:31.612Z,-4.95
2022-12-13T06:17:36.227Z,-4.93
2022-12-13T06:18:35.480Z,-4.65
2022-12-13T06:19:32.254Z,-4.87
2022-12-13T06:20:28.892Z,-4.42
2022-12-13T06:21:25.607Z,-4.27
2022-12-13T06:22:22.168Z,-4.38
2022-12-13T06:23:18.809Z,-4.33
2022-12-13T06:24:17.119Z,-4.41
2022-12-13T06:25:30.844Z,-4.35
2022-12-13T06:26:28.514Z,-4.39
2022-12-13T06:27:25.151Z,-4.31
2022-12-13T06:28:21.787Z,-4.12
2022-12-13T06:29:24.226Z,-3.99
2022-12-13T06:30:22.014Z,-4.02
2022-12-13T06:31:18.671Z,-4.08
2022-12-13T06:32:15.427Z,-4.11
2022-12-13T06:33:13.355Z,-4.05
2022-12-13T06:34:14.581Z,-4.15
2022-12-13T06:35:28.989Z,-4.00
2022-12-13T06:36:26.694Z,-4.55
2022-12-13T06:37:23.243Z,-4.06
2022-12-13T06:38:31.611Z,-4.00
2022-12-13T06:39:32.701Z,-4.05
2022-12-13T06:40:30.765Z,-4.04
2022-12-13T06:41:31.994Z,-4.04
2022-12-13T06:42:28.782Z,-4.09
2022-12-13T06:43:25.375Z,-3.92
2022-12-13T06:44:22.186Z,-4.03
2022-12-13T06:45:19.009Z,-4.14
2022-12-13T06:46:16.028Z,-4.18
2022-12-13T06:47:12.966Z,-4.17
2022-12-13T06:48:28.970Z,-4.01
2022-12-13T06:49:25.666Z,-4.14
2022-12-13T06:50:29.136Z,-3.78
2022-12-13T06:51:33.242Z,-4.24
2022-12-13T06:52:30.105Z,-3.77
2022-12-13T06:53:26.763Z,-3.73
2022-12-13T06:54:23.363Z,-3.62
2022-12-13T06:55:23.591Z,-3.50
2022-12-13T06:56:20.831Z,-3.48
2022-12-13T06:57:17.565Z,-3.41
2022-12-13T06:58:14.170Z,-3.66
2022-12-13T06:59:10.917Z,-3.35
2022-12-13T07:00:08.409Z,-4.02
2022-12-13T07:01:14.577Z,-3.47
2022-12-13T07:02:15.533Z,-3.14
2022-12-13T07:03:22.541Z,-3.27
2022-12-13T07:04:29.741Z,-3.35
2022-12-13T07:05:27.658Z,-3.32
2022-12-13T07:06:25.581Z,-3.16
2022-12-13T07:07:22.878Z,-3.33
2022-12-13T07:08:22.380Z,-3.37
2022-12-13T07:09:19.563Z,-3.26
2022-12-13T07:10:22.149Z,-3.21
2022-12-13T07:11:25.196Z,-3.52
2022-12-13T07:12:22.241Z,-3.29
2022-12-13T07:13:18.807Z,-3.27
2022-12-13T07:14:15.847Z,-3.12
2022-12-13T07:15:12.442Z,-3.08
2022-12-13T07:16:10.384Z,-3.19
2022-12-13T07:17:07.026Z,-3.39
2022-12-13T07:18:04.200Z,-3.57
2022-12-13T07:19:02.128Z,-3.38
2022-12-13T07:19:58.918Z,-3.60
2022-12-13T07:20:57.816Z,-3.50
2022-12-13T07:21:54.442Z,-3.62
2022-12-13T07:22:59.243Z,-3.25
2022-12-13T07:23:56.179Z,-3.18
2022-12-13T07:24:52.932Z,-3.05
2022-12-13T07:25:55.534Z,-2.74
2022-12-13T07:26:52.243Z,-2.96
2022-12-13T07:27:48.887Z,-2.87
2022-12-13T07:28:50.093Z,-2.87
2022-12-13T07:29:49.612Z,-2.88
2022-12-13T07:30:46.913Z,-2.85
2022-12-13T07:31:43.626Z,-2.72
2022-12-13T07:32:41.709Z,-2.61
2022-12-13T07:33:38.765Z,-3.02
2022-12-13T07:34:35.686Z,-2.96
2022-12-13T07:35:36.976Z,-2.70
2022-12-13T07:36:34.342Z,-3.00
2022-12-13T07:37:31.282Z,-2.63
2022-12-13T07:38:28.479Z,-2.73
2022-12-13T07:39:26.341Z,-2.56
2022-12-13T07:40:22.973Z,-2.67
2022-12-13T07:41:23.732Z,-2.65
2022-12-13T07:42:20.839Z,-2.71
2022-12-13T07:43:17.847Z,-2.74
2022-12-13T07:44:14.631Z,-2.71
2022-12-13T07:45:11.341Z,-2.52
2022-12-13T07:46:08.381Z,-2.18
2022-12-13T07:47:05.090Z,-2.28
2022-12-13T07:48:05.855Z,-2.03
2022-12-13T07:49:03.431Z,-2.06
2022-12-13T07:50:00.108Z,-2.22
2022-12-13T07:51:03.997Z,-2.02
2022-12-13T07:52:00.661Z,-1.78
2022-12-13T07:52:57.342Z,-2.15
2022-12-13T07:53:54.015Z,-1.85
2022-12-13T07:54:50.743Z,-1.90
2022-12-13T07:55:47.500Z,-1.89
2022-12-13T07:56:44.411Z,-1.60
2022-12-13T07:57:42.614Z,-2.09
2022-12-13T07:58:39.496Z,-2.08
2022-12-13T07:59:36.122Z,-1.96
2022-12-13T08:00:33.440Z,-1.76
2022-12-13T08:01:34.639Z,-1.71
2022-12-13T08:02:31.704Z,-1.61
2022-12-13T08:03:28.807Z,-1.61
2022-12-13T08:04:25.627Z,-1.73
2022-12-13T08:05:26.681Z,-1.62
2022-12-13T08:06:23.836Z,-1.96
2022-12-13T08:07:20.494Z,-1.88
2022-12-13T08:08:20.042Z,-2.05
2022-12-13T08:09:16.641Z,-1.77
2022-12-13T08:10:13.273Z,-1.92
2022-12-13T08:11:15.412Z,-1.81
2022-12-13T08:12:12.026Z,-1.57
2022-12-13T08:13:08.724Z,-1.49
2022-12-13T08:14:06.344Z,-1.50
2022-12-13T08:15:03.191Z,-1.32
2022-12-13T08:16:26.338Z,-1.54
2022-12-13T08:17:23.345Z,-1.71
2022-12-13T08:18:19.957Z,-1.56
2022-12-13T08:19:16.588Z,-1.41
2022-12-13T08:20:13.548Z,-1.19
2022-12-13T08:21:52.687Z,-1.03
2022-12-13T08:22:36.344Z,-1.07
2022-12-13T08:23:34.267Z,-1.06
2022-12-13T08:24:31.321Z,-0.98
2022-12-13T08:25:28.077Z,-0.66
2022-12-13T08:26:24.972Z,-0.93
2022-12-13T08:27:21.709Z,-0.89
2022-12-13T08:28:18.540Z,-0.85
2022-12-13T08:29:23.052Z,-0.60
2022-12-13T08:30:32.151Z,-0.53
2022-12-13T08:31:33.787Z,-0.54
2022-12-13T08:32:30.775Z,-0.12
2022-12-13T08:33:27.542Z,-0.67
2022-12-13T08:34:24.143Z,-0.35
2022-12-13T08:35:20.790Z,-0.95
2022-12-13T08:36:18.495Z,-1.08
2022-12-13T08:37:16.700Z,-0.52
2022-12-13T08:38:13.848Z,-0.40
2022-12-13T08:39:19.569Z,-0.26
2022-12-13T08:40:16.406Z,-0.85
2022-12-13T08:41:13.940Z,-0.84
2022-12-13T08:42:18.798Z,-0.99
2022-12-13T08:43:15.798Z,-1.07
2022-12-13T08:44:12.393Z,-1.29
2022-12-13T08:45:09.580Z,-1.31
2022-12-13T08:46:06.761Z,-0.74
2022-12-13T08:47:03.420Z,-0.74
2022-12-13T08:48:01.187Z,-1.13
2022-12-13T08:48:57.887Z,-1.15
2022-12-13T08:50:02.354Z,-0.85
2022-12-13T08:51:24.590Z,-0.86
2022-12-13T08:52:23.710Z,-1.04
2022-12-13T08:53:21.055Z,-1.04
2022-12-13T08:54:31.711Z,-1.47
2022-12-13T08:55:31.774Z,-1.67
2022-12-13T08:56:30.133Z,-1.63
2022-12-13T08:57:26.765Z,-1.23
2022-12-13T08:58:23.451Z,-0.68
2022-12-13T08:59:20.148Z,-0.75
2022-12-13T09:00:19.386Z,-0.44
2022-12-13T09:01:16.217Z,-0.45
2022-12-13T09:02:17.276Z,-0.42
2022-12-13T09:03:13.920Z,-0.42
2022-12-13T09:04:10.586Z,-0.19
2022-12-13T09:05:09.273Z,-0.37
2022-12-13T09:06:13.814Z,-0.21
2022-12-13T09:07:10.387Z,-0.25
2022-12-13T09:08:23.708Z,-0.07
2022-12-13T09:09:21.871Z,-0.23
2022-12-13T09:10:27.512Z,-0.04
2022-12-13T09:11:35.003Z,0.21
2022-12-13T09:12:35.023Z,0.14
2022-12-13T09:13:43.563Z,0.23
2022-12-13T09:14:45.393Z,0.43
2022-12-13T09:15:46.307Z,0.82
2022-12-13T09:16:50.447Z,0.80
2022-12-13T09:17:52.492Z,0.55
2022-12-13T09:18:54.720Z,0.08
2022-12-13T09:19:57.962Z,0.84
2022-12-13T09:20:55.440Z,1.01
2022-12-13T09:22:07.871Z,1.23
2022-12-13T09:23:14.314Z,1.50
2022-12-13T09:24:24.170Z,1.70
2022-12-13T09:25:24.018Z,0.84
2022-12-13T09:26:25.602Z,0.82
2022-12-13T09:27:28.232Z,1.10
2022-12-13T09:28:25.522Z,0.45
2022-12-13T09:29:22.182Z,0.33
2022-12-13T09:30:19.283Z,0.05
2022-12-13T09:31:19.426Z,0.03
2022-12-13T09:32:16.259Z,0.43
2022-12-13T09:33:17.642Z,0.25
2022-12-13T09:34:26.859Z,0.25
2022-12-13T09:35:23.607Z,-0.19
2022-12-13T09:36:21.504Z,-0.25
2022-12-13T09:37:22.748Z,-0.23
2022-12-13T09:38:20.409Z,0.15
2022-12-13T09:39:17.199Z,0.27
2022-12-13T09:40:26.061Z,-0.02
2022-12-13T09:41:42.522Z,0.40
2022-12-13T09:42:44.995Z,0.31
2022-12-13T09:43:44.084Z,0.14
2022-12-13T09:45:02.185Z,0.21
2022-12-13T09:46:13.304Z,0.39
2022-12-13T09:47:26.191Z,0.21
2022-12-13T09:48:23.545Z,0.64
2022-12-13T09:49:38.469Z,0.63
2022-12-13T09:50:38.766Z,1.29
2022-12-13T09:51:41.461Z,1.06
2022-12-13T09:52:44.479Z,1.10
2022-12-13T09:53:51.532Z,1.17
2022-12-13T09:54:50.136Z,1.23
2022-12-13T09:55:50.880Z,1.55
2022-12-13T09:56:51.401Z,1.29
2022-12-13T09:57:48.760Z,0.96
2022-12-13T09:58:49.279Z,1.15
2022-12-13T09:59:47.596Z,0.65
2022-12-13T10:00:47.485Z,0.99
2022-12-13T10:01:45.487Z,1.58
2022-12-13T10:02:48.380Z,1.31
2022-12-13T10:03:49.206Z,1.37
2022-12-13T10:04:45.899Z,1.22
2022-12-13T10:05:46.053Z,1.46
2022-12-13T10:06:42.788Z,1.05
2022-12-13T10:07:40.257Z,1.06
2022-12-13T10:08:50.380Z,0.81
2022-12-13T10:10:01.603Z,1.05
2022-12-13T10:10:58.377Z,0.88
2022-12-13T10:11:55.846Z,1.17
2022-12-13T10:13:08.716Z,0.87
2022-12-13T10:14:30.020Z,1.25
2022-12-13T10:15:28.580Z,1.23
2022-12-13T10:16:25.179Z,1.30
2022-12-13T10:17:25.745Z,1.02
2022-12-13T10:18:33.824Z,1.63
2022-12-13T10:19:40.541Z,1.57
2022-12-13T10:20:37.720Z,1.27
2022-12-13T10:21:42.932Z,1.30
2022-12-13T10:22:39.533Z,1.75
2022-12-13T10:23:59.811Z,1.99
2022-12-13T10:25:03.868Z,1.61
2022-12-13T10:26:03.297Z,1.44
2022-12-13T10:27:32.146Z,1.62
2022-12-13T10:28:33.466Z,1.82
2022-12-13T10:29:30.081Z,2.19
2022-12-13T10:30:29.161Z,2.01
2022-12-13T10:31:26.204Z,1.67
2022-12-13T10:32:23.093Z,1.70
2022-12-13T10:33:28.987Z,1.29
2022-12-13T10:34:29.915Z,1.15
2022-12-13T10:35:27.929Z,1.46
2022-12-13T10:36:43.789Z,1.70
2022-12-13T10:37:40.452Z,1.44
2022-12-13T10:38:45.564Z,1.29
2022-12-13T10:39:43.634Z,1.24
2022-12-13T10:40:46.744Z,1.00
2022-12-13T10:41:44.470Z,1.35
2022-12-13T10:42:41.095Z,1.27
2022-12-13T10:43:38.076Z,1.06
2022-12-13T10:44:35.488Z,1.08
2022-12-13T10:45:32.161Z,1.16
2022-12-13T10:46:31.268Z,0.77
2022-12-13T10:47:36.461Z,0.91
2022-12-13T10:48:39.910Z,0.58
2022-12-13T10:49:39.420Z,0.60
2022-12-13T10:50:37.099Z,0.38
2022-12-13T10:51:39.964Z,0.53
2022-12-13T10:52:43.162Z,0.68
2022-12-13T10:53:47.390Z,0.80
2022-12-13T10:54:48.523Z,0.80
2022-12-13T10:55:45.545Z,0.39
2022-12-13T10:56:51.018Z,0.34
2022-12-13T10:57:56.935Z,0.50
2022-12-13T10:59:16.987Z,0.07
2022-12-13T11:00:33.682Z,-0.77
2022-12-13T11:01:30.521Z,0.06
2022-12-13T11:02:38.360Z,0.40
2022-12-13T11:03:35.019Z,0.61
2022-12-13T11:04:35.304Z,0.41
2022-12-13T11:05:35.619Z,0.21
2022-12-13T11:06:46.746Z,0.42
2022-12-13T11:07:43.323Z,0.46
2022-12-13T11:08:40.146Z,0.33
2022-12-13T11:09:38.936Z,0.18
2022-12-13T11:10:36.517Z,0.84
2022-12-13T11:11:34.948Z,1.09
2022-12-13T11:12:31.729Z,1.11
2022-12-13T11:13:33.516Z,0.09
2022-12-13T11:14:43.221Z,-0.16
2022-12-13T11:15:40.353Z,0.11
2022-12-13T11:16:41.485Z,0.17
2022-12-13T11:17:48.116Z,0.51
2022-12-13T11:18:53.018Z,0.25
2022-12-13T11:19:54.012Z,0.64
2022-12-13T11:21:00.456Z,0.48
2022-12-13T11:21:57.319Z,0.38
2022-12-13T11:23:19.675Z,0.41
2022-12-13T11:24:38.420Z,0.36
2022-12-13T11:25:43.709Z,0.05
2022-12-13T11:26:42.932Z,0.05
2022-12-13T11:27:46.174Z,0.37
2022-12-13T11:29:09.224Z,0.34
2022-12-13T11:30:27.359Z,0.60
2022-12-13T11:31:48.851Z,1.20
2022-12-13T11:32:59.268Z,0.90
2022-12-13T11:34:09.174Z,0.69
2022-12-13T11:35:16.358Z,0.86
2022-12-13T11:36:48.578Z,1.08
2022-12-13T11:37:49.330Z,1.29
2022-12-13T11:38:58.188Z,1.31
2022-12-13T11:40:01.679Z,1.59
2022-12-13T11:41:38.633Z,1.74
2022-12-13T11:42:54.161Z,1.31
2022-12-13T11:44:14.055Z,1.16
2022-12-13T11:45:11.716Z,1.23
2022-12-13T11:46:35.136Z,1.27
2022-12-13T11:48:00.645Z,1.31
2022-12-13T11:49:03.079Z,0.92
2022-12-13T11:50:00.639Z,1.15
2022-12-13T11:51:00.103Z,1.01
2022-12-13T11:52:21.897Z,1.69
2022-12-13T11:53:50.675Z,1.18
2022-12-13T11:54:57.687Z,1.30
2022-12-13T11:56:20.267Z,1.04
2022-12-13T11:57:31.658Z,1.43
2022-12-13T11:59:02.913Z,1.06
2022-12-13T12:00:35.425Z,1.07
2022-12-13T12:01:47.771Z,0.54
2022-12-13T12:02:56.815Z,0.99
2022-12-13T12:03:56.865Z,0.85
2022-12-13T12:05:00.496Z,0.32
2022-12-13T12:06:05.938Z,0.02
2022-12-13T12:07:30.683Z,0.61
2022-12-13T12:08:52.851Z,0.76
2022-12-13T12:09:56.239Z,0.61
2022-12-13T12:11:19.400Z,0.23
2022-12-13T12:12:37.248Z,0.11
2022-12-13T12:13:51.621Z,0.48
2022-12-13T12:14:52.660Z,0.59
2022-12-13T12:16:04.236Z,0.27
2022-12-13T12:17:01.130Z,0.71
2022-12-13T12:17:57.951Z,1.30
2022-12-13T12:18:54.676Z,1.15
2022-12-13T12:19:58.919Z,0.71
2022-12-13T12:21:20.638Z,0.64
2022-12-13T12:22:48.054Z,0.54
2022-12-13T12:23:52.552Z,0.95
2022-12-13T12:25:16.814Z,0.55
2022-12-13T12:26:18.556Z,0.24
2022-12-13T12:27:39.927Z,1.07
2022-12-13T12:29:12.283Z,1.36
2022-12-13T12:30:23.195Z,1.13
2022-12-13T12:31:50.923Z,0.84
2022-12-13T12:33:00.826Z,0.63
2022-12-13T12:34:00.228Z,0.57
2022-12-13T12:35:16.545Z,0.87
2022-12-13T12:36:32.019Z,1.17
2022-12-13T12:37:49.293Z,0.27
2022-12-13T12:39:14.397Z,0.55
2022-12-13T12:40:52.182Z,0.41
2022-12-13T12:42:07.981Z,0.66
2022-12-13T12:43:22.111Z,0.60
2022-12-13T12:44:37.097Z,0.54
2022-12-13T12:45:57.192Z,0.71
2022-12-13T12:47:18.050Z,0.61
2022-12-13T12:49:02.167Z,0.04
2022-12-13T12:50:18.782Z,0.82
2022-12-13T12:51:33.846Z,0.66
2022-12-13T12:52:55.201Z,0.82
2022-12-13T12:54:19.051Z,0.43
2022-12-13T12:55:33.688Z,0.98
2022-12-13T12:56:45.603Z,0.61
2022-12-13T12:58:05.076Z,0.63
2022-12-13T12:59:27.343Z,0.62
2022-12-13T13:00:25.128Z,0.31
2022-12-13T13:02:03.196Z,0.64
2022-12-13T13:03:14.515Z,0.30
2022-12-13T13:04:22.295Z,0.78
2022-12-13T13:05:45.084Z,0.75
2022-12-13T13:06:47.782Z,0.38
2022-12-13T13:07:52.813Z,0.72
2022-12-13T13:08:54.985Z,1.30
2022-12-13T13:09:54.948Z,0.79
2022-12-13T13:10:54.017Z,0.54
2022-12-13T13:12:29.377Z,0.50
2022-12-13T13:13:49.873Z,0.58
2022-12-13T13:14:46.549Z,1.09
2022-12-13T13:15:52.437Z,0.72
2022-12-13T13:16:49.205Z,0.11
2022-12-13T13:17:46.935Z,0.27
2022-12-13T13:18:52.020Z,0.67
2022-12-13T13:19:50.555Z,0.69
2022-12-13T13:21:25.891Z,0.83
2022-12-13T13:22:44.368Z,1.05
2022-12-13T13:23:43.186Z,0.94
2022-12-13T13:24:39.900Z,0.50
2022-12-13T13:26:00.378Z,0.56
2022-12-13T13:26:58.661Z,-0.23
2022-12-13T13:28:22.306Z,0.11
2022-12-13T13:29:27.678Z,-0.02
2022-12-13T13:30:26.189Z,0.03